sensor_id;sensor_type;location;lat;lon;timestamp;P1;durP1;ratioP1;P2;durP2;ratioP2
5752;SDS011;2901;42.140;24.760;2023-07-31T00:01:14;1.25;;;1.25;;
5752;SDS011;2901;42.140;24.760;2023-07-31T00:03:39;9.27;;;1.50;;
5752;SDS011;2901;42.140;24.760;2023-07-31T00:06:04;1.33;;;1.20;;
5752;SDS011;2901;42.140;24.760;2023-07-31T00:08:30;6.05;;;1.23;;
5752;SDS011;2901;42.140;24.760;2023-07-31T00:10:55;4.03;;;1.38;;
5752;SDS011;2901;42.140;24.760;2023-07-31T00:13:20;3.50;;;1.13;;
5752;SDS011;2901;42.140;24.760;2023-07-31T00:15:46;1.55;;;1.45;;
5752;SDS011;2901;42.140;24.760;2023-07-31T00:18:11;3.20;;;1.30;;
5752;SDS011;2901;42.140;24.760;2023-07-31T00:20:37;1.27;;;1.17;;
5752;SDS011;2901;42.140;24.760;2023-07-31T00:23:02;1.55;;;1.45;;
5752;SDS011;2901;42.140;24.760;2023-07-31T00:25:27;1.40;;;1.30;;
5752;SDS011;2901;42.140;24.760;2023-07-31T00:27:53;1.55;;;1.45;;
5752;SDS011;2901;42.140;24.760;2023-07-31T00:30:18;3.70;;;1.38;;
5752;SDS011;2901;42.140;24.760;2023-07-31T00:32:43;1.75;;;1.48;;
5752;SDS011;2901;42.140;24.760;2023-07-31T00:35:09;3.92;;;1.27;;
5752;SDS011;2901;42.140;24.760;2023-07-31T00:37:34;1.30;;;1.30;;
5752;SDS011;2901;42.140;24.760;2023-07-31T00:39:59;1.27;;;1.17;;
5752;SDS011;2901;42.140;24.760;2023-07-31T00:42:25;4.25;;;1.40;;
5752;SDS011;2901;42.140;24.760;2023-07-31T00:44:50;1.20;;;1.20;;
5752;SDS011;2901;42.140;24.760;2023-07-31T00:47:16;1.30;;;1.27;;
5752;SDS011;2901;42.140;24.760;2023-07-31T00:49:41;1.67;;;1.40;;
5752;SDS011;2901;42.140;24.760;2023-07-31T00:52:07;2.45;;;1.38;;
5752;SDS011;2901;42.140;24.760;2023-07-31T00:54:35;5.28;;;1.00;;
5752;SDS011;2901;42.140;24.760;2023-07-31T00:57:00;4.57;;;1.40;;
5752;SDS011;2901;42.140;24.760;2023-07-31T00:59:26;6.60;;;1.42;;
5752;SDS011;2901;42.140;24.760;2023-07-31T01:01:51;3.80;;;1.27;;
5752;SDS011;2901;42.140;24.760;2023-07-31T01:04:17;1.15;;;1.13;;
5752;SDS011;2901;42.140;24.760;2023-07-31T01:06:48;1.02;;;1.02;;
5752;SDS011;2901;42.140;24.760;2023-07-31T01:09:50;2.15;;;1.92;;
5752;SDS011;2901;42.140;24.760;2023-07-31T01:12:25;1.50;;;1.40;;
5752;SDS011;2901;42.140;24.760;2023-07-31T01:15:06;1.88;;;1.77;;
5752;SDS011;2901;42.140;24.760;2023-07-31T01:17:36;2.25;;;1.58;;
5752;SDS011;2901;42.140;24.760;2023-07-31T01:20:02;1.85;;;1.33;;
5752;SDS011;2901;42.140;24.760;2023-07-31T01:22:48;1.60;;;1.50;;
5752;SDS011;2901;42.140;24.760;2023-07-31T01:28:47;1.40;;;1.30;;
5752;SDS011;2901;42.140;24.760;2023-07-31T01:31:26;2.47;;;1.52;;
5752;SDS011;2901;42.140;24.760;2023-07-31T01:33:54;2.45;;;1.88;;
5752;SDS011;2901;42.140;24.760;2023-07-31T01:36:22;1.90;;;1.80;;
5752;SDS011;2901;42.140;24.760;2023-07-31T01:38:48;2.30;;;2.20;;
5752;SDS011;2901;42.140;24.760;2023-07-31T01:41:16;2.28;;;2.17;;
5752;SDS011;2901;42.140;24.760;2023-07-31T01:43:45;3.13;;;2.85;;
5752;SDS011;2901;42.140;24.760;2023-07-31T01:46:11;2.35;;;2.10;;
5752;SDS011;2901;42.140;24.760;2023-07-31T01:48:37;2.85;;;2.63;;
5752;SDS011;2901;42.140;24.760;2023-07-31T01:51:02;5.53;;;2.83;;
5752;SDS011;2901;42.140;24.760;2023-07-31T01:53:28;3.85;;;3.65;;
5752;SDS011;2901;42.140;24.760;2023-07-31T01:55:56;3.58;;;3.33;;
5752;SDS011;2901;42.140;24.760;2023-07-31T01:58:21;6.70;;;3.88;;
5752;SDS011;2901;42.140;24.760;2023-07-31T02:00:46;3.38;;;3.17;;
5752;SDS011;2901;42.140;24.760;2023-07-31T02:03:12;9.68;;;3.45;;
5752;SDS011;2901;42.140;24.760;2023-07-31T02:05:43;9.30;;;7.43;;
5752;SDS011;2901;42.140;24.760;2023-07-31T02:08:12;20.08;;;12.70;;
5752;SDS011;2901;42.140;24.760;2023-07-31T02:10:38;21.65;;;14.68;;
5752;SDS011;2901;42.140;24.760;2023-07-31T02:13:03;18.30;;;14.48;;
5752;SDS011;2901;42.140;24.760;2023-07-31T02:15:29;17.83;;;13.38;;
5752;SDS011;2901;42.140;24.760;2023-07-31T02:17:55;14.63;;;13.07;;
5752;SDS011;2901;42.140;24.760;2023-07-31T02:20:21;22.20;;;13.02;;
5752;SDS011;2901;42.140;24.760;2023-07-31T02:22:46;9.93;;;8.75;;
5752;SDS011;2901;42.140;24.760;2023-07-31T02:25:12;8.63;;;5.68;;
5752;SDS011;2901;42.140;24.760;2023-07-31T02:27:37;5.35;;;4.60;;
5752;SDS011;2901;42.140;24.760;2023-07-31T02:30:03;8.13;;;3.22;;
5752;SDS011;2901;42.140;24.760;2023-07-31T02:32:28;6.07;;;3.05;;
5752;SDS011;2901;42.140;24.760;2023-07-31T02:34:54;4.70;;;2.28;;
5752;SDS011;2901;42.140;24.760;2023-07-31T02:37:19;6.28;;;2.80;;
5752;SDS011;2901;42.140;24.760;2023-07-31T02:39:44;2.70;;;2.53;;
5752;SDS011;2901;42.140;24.760;2023-07-31T02:42:10;2.70;;;2.53;;
5752;SDS011;2901;42.140;24.760;2023-07-31T02:44:35;3.22;;;2.92;;
5752;SDS011;2901;42.140;24.760;2023-07-31T02:47:00;3.13;;;3.03;;
5752;SDS011;2901;42.140;24.760;2023-07-31T02:49:26;9.57;;;2.58;;
5752;SDS011;2901;42.140;24.760;2023-07-31T02:51:51;3.47;;;3.28;;
5752;SDS011;2901;42.140;24.760;2023-07-31T02:54:16;7.82;;;3.45;;
5752;SDS011;2901;42.140;24.760;2023-07-31T02:56:42;2.83;;;2.72;;
5752;SDS011;2901;42.140;24.760;2023-07-31T02:59:07;3.58;;;3.22;;
5752;SDS011;2901;42.140;24.760;2023-07-31T03:01:33;3.15;;;2.95;;
5752;SDS011;2901;42.140;24.760;2023-07-31T03:03:59;5.32;;;3.17;;
5752;SDS011;2901;42.140;24.760;2023-07-31T03:06:24;4.10;;;3.70;;
5752;SDS011;2901;42.140;24.760;2023-07-31T03:08:51;3.75;;;3.58;;
5752;SDS011;2901;42.140;24.760;2023-07-31T03:11:16;4.82;;;3.20;;
5752;SDS011;2901;42.140;24.760;2023-07-31T03:13:41;4.57;;;3.30;;
5752;SDS011;2901;42.140;24.760;2023-07-31T03:16:07;3.70;;;3.50;;
5752;SDS011;2901;42.140;24.760;2023-07-31T03:18:32;4.10;;;3.80;;
5752;SDS011;2901;42.140;24.760;2023-07-31T03:20:58;5.70;;;3.97;;
5752;SDS011;2901;42.140;24.760;2023-07-31T03:23:23;6.00;;;4.13;;
5752;SDS011;2901;42.140;24.760;2023-07-31T03:25:56;4.60;;;4.30;;
5752;SDS011;2901;42.140;24.760;2023-07-31T03:28:23;6.05;;;5.45;;
5752;SDS011;2901;42.140;24.760;2023-07-31T03:30:48;6.32;;;5.82;;
5752;SDS011;2901;42.140;24.760;2023-07-31T03:33:14;6.35;;;5.80;;
5752;SDS011;2901;42.140;24.760;2023-07-31T03:35:39;7.28;;;6.78;;
5752;SDS011;2901;42.140;24.760;2023-07-31T03:38:05;7.32;;;6.88;;
5752;SDS011;2901;42.140;24.760;2023-07-31T03:40:30;7.03;;;6.63;;
5752;SDS011;2901;42.140;24.760;2023-07-31T03:42:55;7.55;;;6.95;;
5752;SDS011;2901;42.140;24.760;2023-07-31T03:45:21;8.45;;;7.78;;
5752;SDS011;2901;42.140;24.760;2023-07-31T03:47:46;7.95;;;7.22;;
5752;SDS011;2901;42.140;24.760;2023-07-31T03:50:11;8.10;;;7.60;;
5752;SDS011;2901;42.140;24.760;2023-07-31T03:52:37;8.23;;;7.40;;
5752;SDS011;2901;42.140;24.760;2023-07-31T03:55:02;7.45;;;7.05;;
5752;SDS011;2901;42.140;24.760;2023-07-31T03:57:28;9.05;;;7.60;;
5752;SDS011;2901;42.140;24.760;2023-07-31T03:59:53;6.18;;;5.60;;
5752;SDS011;2901;42.140;24.760;2023-07-31T04:02:18;7.20;;;5.78;;
5752;SDS011;2901;42.140;24.760;2023-07-31T04:04:44;5.57;;;5.07;;
5752;SDS011;2901;42.140;24.760;2023-07-31T04:07:09;7.97;;;5.90;;
5752;SDS011;2901;42.140;24.760;2023-07-31T04:09:35;6.72;;;6.32;;
5752;SDS011;2901;42.140;24.760;2023-07-31T04:12:00;7.95;;;6.78;;
5752;SDS011;2901;42.140;24.760;2023-07-31T04:14:25;8.15;;;7.47;;
5752;SDS011;2901;42.140;24.760;2023-07-31T04:16:51;8.15;;;7.45;;
5752;SDS011;2901;42.140;24.760;2023-07-31T04:19:17;8.60;;;7.97;;
5752;SDS011;2901;42.140;24.760;2023-07-31T04:21:42;8.32;;;7.82;;
5752;SDS011;2901;42.140;24.760;2023-07-31T04:24:08;8.23;;;7.65;;
5752;SDS011;2901;42.140;24.760;2023-07-31T04:26:34;7.47;;;6.88;;
5752;SDS011;2901;42.140;24.760;2023-07-31T04:28:59;7.32;;;6.93;;
5752;SDS011;2901;42.140;24.760;2023-07-31T04:31:24;7.38;;;6.80;;
5752;SDS011;2901;42.140;24.760;2023-07-31T04:33:50;7.15;;;6.75;;
5752;SDS011;2901;42.140;24.760;2023-07-31T04:36:15;6.47;;;5.88;;
5752;SDS011;2901;42.140;24.760;2023-07-31T04:38:41;6.13;;;5.70;;
5752;SDS011;2901;42.140;24.760;2023-07-31T04:41:06;7.28;;;6.65;;
5752;SDS011;2901;42.140;24.760;2023-07-31T04:43:31;5.25;;;4.95;;
5752;SDS011;2901;42.140;24.760;2023-07-31T04:45:57;5.75;;;5.43;;
5752;SDS011;2901;42.140;24.760;2023-07-31T04:48:23;6.80;;;6.30;;
5752;SDS011;2901;42.140;24.760;2023-07-31T04:50:48;6.10;;;5.60;;
5752;SDS011;2901;42.140;24.760;2023-07-31T04:53:14;6.32;;;5.72;;
5752;SDS011;2901;42.140;24.760;2023-07-31T04:55:39;7.18;;;5.47;;
5752;SDS011;2901;42.140;24.760;2023-07-31T04:58:05;6.18;;;5.88;;
5752;SDS011;2901;42.140;24.760;2023-07-31T05:00:30;6.35;;;5.78;;
5752;SDS011;2901;42.140;24.760;2023-07-31T05:02:56;5.43;;;5.03;;
5752;SDS011;2901;42.140;24.760;2023-07-31T05:05:21;5.63;;;5.30;;
5752;SDS011;2901;42.140;24.760;2023-07-31T05:07:47;6.57;;;5.78;;
5752;SDS011;2901;42.140;24.760;2023-07-31T05:10:12;5.70;;;5.25;;
5752;SDS011;2901;42.140;24.760;2023-07-31T05:12:38;9.15;;;6.10;;
5752;SDS011;2901;42.140;24.760;2023-07-31T05:15:03;5.68;;;5.30;;
5752;SDS011;2901;42.140;24.760;2023-07-31T05:17:29;7.10;;;6.25;;
5752;SDS011;2901;42.140;24.760;2023-07-31T05:19:54;10.35;;;6.57;;
5752;SDS011;2901;42.140;24.760;2023-07-31T05:22:20;5.85;;;5.55;;
5752;SDS011;2901;42.140;24.760;2023-07-31T05:24:45;6.45;;;5.85;;
5752;SDS011;2901;42.140;24.760;2023-07-31T05:27:10;7.05;;;5.32;;
5752;SDS011;2901;42.140;24.760;2023-07-31T05:29:37;5.25;;;4.95;;
5752;SDS011;2901;42.140;24.760;2023-07-31T05:32:02;5.13;;;4.82;;
5752;SDS011;2901;42.140;24.760;2023-07-31T05:34:28;7.82;;;5.53;;
5752;SDS011;2901;42.140;24.760;2023-07-31T05:36:53;4.97;;;4.68;;
5752;SDS011;2901;42.140;24.760;2023-07-31T05:39:19;5.15;;;4.75;;
5752;SDS011;2901;42.140;24.760;2023-07-31T05:41:44;10.75;;;5.22;;
5752;SDS011;2901;42.140;24.760;2023-07-31T05:44:10;6.85;;;5.28;;
5752;SDS011;2901;42.140;24.760;2023-07-31T05:46:35;4.93;;;4.53;;
5752;SDS011;2901;42.140;24.760;2023-07-31T05:49:01;5.07;;;4.38;;
5752;SDS011;2901;42.140;24.760;2023-07-31T05:51:26;8.15;;;5.43;;
5752;SDS011;2901;42.140;24.760;2023-07-31T05:53:52;5.22;;;4.80;;
5752;SDS011;2901;42.140;24.760;2023-07-31T05:56:18;6.30;;;5.70;;
5752;SDS011;2901;42.140;24.760;2023-07-31T05:58:43;10.80;;;6.28;;
5752;SDS011;2901;42.140;24.760;2023-07-31T06:01:09;6.90;;;6.00;;
5752;SDS011;2901;42.140;24.760;2023-07-31T06:03:34;6.38;;;5.90;;
5752;SDS011;2901;42.140;24.760;2023-07-31T06:05:59;9.13;;;6.43;;
5752;SDS011;2901;42.140;24.760;2023-07-31T06:08:25;9.65;;;6.57;;
5752;SDS011;2901;42.140;24.760;2023-07-31T06:10:50;9.07;;;6.75;;
5752;SDS011;2901;42.140;24.760;2023-07-31T06:13:16;7.72;;;7.22;;
5752;SDS011;2901;42.140;24.760;2023-07-31T06:15:41;7.68;;;6.47;;
5752;SDS011;2901;42.140;24.760;2023-07-31T06:18:06;7.05;;;6.75;;
5752;SDS011;2901;42.140;24.760;2023-07-31T06:20:33;8.85;;;8.18;;
5752;SDS011;2901;42.140;24.760;2023-07-31T06:22:59;7.72;;;7.43;;
5752;SDS011;2901;42.140;24.760;2023-07-31T06:25:24;7.72;;;7.43;;
5752;SDS011;2901;42.140;24.760;2023-07-31T06:27:49;8.32;;;7.85;;
5752;SDS011;2901;42.140;24.760;2023-07-31T06:30:15;8.15;;;7.75;;
5752;SDS011;2901;42.140;24.760;2023-07-31T06:32:40;8.40;;;7.90;;
5752;SDS011;2901;42.140;24.760;2023-07-31T06:35:06;8.48;;;7.88;;
5752;SDS011;2901;42.140;24.760;2023-07-31T06:37:31;9.30;;;8.40;;
5752;SDS011;2901;42.140;24.760;2023-07-31T06:39:57;12.48;;;8.85;;
5752;SDS011;2901;42.140;24.760;2023-07-31T06:42:22;9.23;;;8.68;;
5752;SDS011;2901;42.140;24.760;2023-07-31T06:44:47;9.13;;;8.68;;
5752;SDS011;2901;42.140;24.760;2023-07-31T06:47:13;9.25;;;8.63;;
5752;SDS011;2901;42.140;24.760;2023-07-31T06:49:38;9.98;;;9.23;;
5752;SDS011;2901;42.140;24.760;2023-07-31T06:52:04;10.38;;;9.75;;
5752;SDS011;2901;42.140;24.760;2023-07-31T06:54:29;10.68;;;9.73;;
5752;SDS011;2901;42.140;24.760;2023-07-31T06:56:54;10.32;;;9.52;;
5752;SDS011;2901;42.140;24.760;2023-07-31T06:59:20;9.80;;;9.30;;
5752;SDS011;2901;42.140;24.760;2023-07-31T07:01:45;10.18;;;9.57;;
5752;SDS011;2901;42.140;24.760;2023-07-31T07:04:11;10.82;;;10.07;;
5752;SDS011;2901;42.140;24.760;2023-07-31T07:06:36;10.27;;;9.68;;
5752;SDS011;2901;42.140;24.760;2023-07-31T07:09:02;9.80;;;9.20;;
5752;SDS011;2901;42.140;24.760;2023-07-31T07:11:28;10.40;;;9.90;;
5752;SDS011;2901;42.140;24.760;2023-07-31T07:13:53;11.45;;;10.52;;
5752;SDS011;2901;42.140;24.760;2023-07-31T07:16:18;10.80;;;9.98;;
5752;SDS011;2901;42.140;24.760;2023-07-31T07:18:44;10.35;;;9.77;;
5752;SDS011;2901;42.140;24.760;2023-07-31T07:21:10;11.70;;;10.75;;
5752;SDS011;2901;42.140;24.760;2023-07-31T07:23:40;11.68;;;10.85;;
5752;SDS011;2901;42.140;24.760;2023-07-31T07:26:06;12.27;;;11.68;;
5752;SDS011;2901;42.140;24.760;2023-07-31T07:28:31;11.20;;;10.48;;
5752;SDS011;2901;42.140;24.760;2023-07-31T07:30:56;12.32;;;11.23;;
5752;SDS011;2901;42.140;24.760;2023-07-31T07:33:23;12.38;;;11.70;;
5752;SDS011;2901;42.140;24.760;2023-07-31T07:35:48;12.25;;;11.55;;
5752;SDS011;2901;42.140;24.760;2023-07-31T07:38:14;12.07;;;11.38;;
5752;SDS011;2901;42.140;24.760;2023-07-31T07:40:40;10.38;;;9.98;;
5752;SDS011;2901;42.140;24.760;2023-07-31T07:43:06;13.02;;;11.88;;
5752;SDS011;2901;42.140;24.760;2023-07-31T07:45:32;12.20;;;11.50;;
5752;SDS011;2901;42.140;24.760;2023-07-31T07:47:57;13.30;;;12.45;;
5752;SDS011;2901;42.140;24.760;2023-07-31T07:50:24;13.88;;;12.52;;
5752;SDS011;2901;42.140;24.760;2023-07-31T07:52:49;11.68;;;11.07;;
5752;SDS011;2901;42.140;24.760;2023-07-31T07:55:15;11.43;;;10.73;;
5752;SDS011;2901;42.140;24.760;2023-07-31T07:57:40;12.45;;;11.68;;
5752;SDS011;2901;42.140;24.760;2023-07-31T08:00:05;12.20;;;11.50;;
5752;SDS011;2901;42.140;24.760;2023-07-31T08:02:31;12.23;;;11.40;;
5752;SDS011;2901;42.140;24.760;2023-07-31T08:04:57;11.15;;;10.65;;
5752;SDS011;2901;42.140;24.760;2023-07-31T08:07:22;11.63;;;11.02;;
5752;SDS011;2901;42.140;24.760;2023-07-31T08:09:47;12.80;;;11.75;;
5752;SDS011;2901;42.140;24.760;2023-07-31T08:12:13;10.68;;;9.93;;
5752;SDS011;2901;42.140;24.760;2023-07-31T08:14:38;11.10;;;10.25;;
5752;SDS011;2901;42.140;24.760;2023-07-31T08:17:04;10.35;;;9.65;;
5752;SDS011;2901;42.140;24.760;2023-07-31T08:19:29;9.82;;;9.35;;
5752;SDS011;2901;42.140;24.760;2023-07-31T08:21:55;9.57;;;9.07;;
5752;SDS011;2901;42.140;24.760;2023-07-31T08:24:20;9.63;;;9.02;;
5752;SDS011;2901;42.140;24.760;2023-07-31T08:26:46;10.63;;;9.57;;
5752;SDS011;2901;42.140;24.760;2023-07-31T08:29:12;9.98;;;9.13;;
5752;SDS011;2901;42.140;24.760;2023-07-31T08:31:37;8.48;;;8.18;;
5752;SDS011;2901;42.140;24.760;2023-07-31T08:34:02;11.07;;;10.38;;
5752;SDS011;2901;42.140;24.760;2023-07-31T08:36:28;12.82;;;12.10;;
5752;SDS011;2901;42.140;24.760;2023-07-31T08:38:53;14.98;;;13.98;;
5752;SDS011;2901;42.140;24.760;2023-07-31T08:41:20;13.02;;;12.00;;
5752;SDS011;2901;42.140;24.760;2023-07-31T08:43:46;13.52;;;12.60;;
5752;SDS011;2901;42.140;24.760;2023-07-31T08:46:11;12.43;;;11.82;;
5752;SDS011;2901;42.140;24.760;2023-07-31T08:48:39;12.93;;;11.82;;
5752;SDS011;2901;42.140;24.760;2023-07-31T08:51:06;11.25;;;10.43;;
5752;SDS011;2901;42.140;24.760;2023-07-31T08:53:32;10.88;;;10.25;;
5752;SDS011;2901;42.140;24.760;2023-07-31T08:55:58;10.43;;;9.95;;
5752;SDS011;2901;42.140;24.760;2023-07-31T08:58:24;10.98;;;10.35;;
5752;SDS011;2901;42.140;24.760;2023-07-31T09:00:52;11.50;;;10.75;;
5752;SDS011;2901;42.140;24.760;2023-07-31T09:03:19;10.95;;;10.43;;
5752;SDS011;2901;42.140;24.760;2023-07-31T09:05:48;12.30;;;11.50;;
5752;SDS011;2901;42.140;24.760;2023-07-31T09:08:19;12.07;;;11.48;;
5752;SDS011;2901;42.140;24.760;2023-07-31T09:10:46;11.10;;;10.18;;
5752;SDS011;2901;42.140;24.760;2023-07-31T09:13:12;11.52;;;10.75;;
5752;SDS011;2901;42.140;24.760;2023-07-31T09:15:38;10.65;;;10.15;;
5752;SDS011;2901;42.140;24.760;2023-07-31T09:18:05;10.95;;;10.35;;
5752;SDS011;2901;42.140;24.760;2023-07-31T09:20:31;10.18;;;9.55;;
5752;SDS011;2901;42.140;24.760;2023-07-31T09:23:04;10.27;;;9.85;;
5752;SDS011;2901;42.140;24.760;2023-07-31T09:25:32;11.02;;;10.52;;
5752;SDS011;2901;42.140;24.760;2023-07-31T09:27:58;11.55;;;10.95;;
5752;SDS011;2901;42.140;24.760;2023-07-31T09:30:28;11.50;;;10.77;;
5752;SDS011;2901;42.140;24.760;2023-07-31T09:33:00;10.15;;;9.75;;
5752;SDS011;2901;42.140;24.760;2023-07-31T09:35:28;10.43;;;9.70;;
5752;SDS011;2901;42.140;24.760;2023-07-31T09:37:59;10.68;;;10.27;;
5752;SDS011;2901;42.140;24.760;2023-07-31T09:40:30;12.13;;;11.45;;
5752;SDS011;2901;42.140;24.760;2023-07-31T09:42:58;10.70;;;10.20;;
5752;SDS011;2901;42.140;24.760;2023-07-31T09:45:25;11.70;;;11.13;;
5752;SDS011;2901;42.140;24.760;2023-07-31T09:47:51;10.32;;;9.82;;
5752;SDS011;2901;42.140;24.760;2023-07-31T09:50:17;10.93;;;10.38;;
5752;SDS011;2901;42.140;24.760;2023-07-31T09:52:42;11.50;;;10.57;;
5752;SDS011;2901;42.140;24.760;2023-07-31T09:55:08;10.00;;;9.50;;
5752;SDS011;2901;42.140;24.760;2023-07-31T09:57:36;8.73;;;8.13;;
5752;SDS011;2901;42.140;24.760;2023-07-31T10:00:09;8.18;;;7.78;;
5752;SDS011;2901;42.140;24.760;2023-07-31T10:02:36;7.75;;;7.40;;
5752;SDS011;2901;42.140;24.760;2023-07-31T10:05:03;8.23;;;7.75;;
5752;SDS011;2901;42.140;24.760;2023-07-31T10:07:30;7.57;;;7.20;;
5752;SDS011;2901;42.140;24.760;2023-07-31T10:10:00;9.18;;;8.73;;
5752;SDS011;2901;42.140;24.760;2023-07-31T10:12:26;9.25;;;8.75;;
5752;SDS011;2901;42.140;24.760;2023-07-31T10:14:54;10.75;;;10.07;;
5752;SDS011;2901;42.140;24.760;2023-07-31T10:17:21;9.82;;;9.13;;
5752;SDS011;2901;42.140;24.760;2023-07-31T10:19:47;9.13;;;8.60;;
5752;SDS011;2901;42.140;24.760;2023-07-31T10:22:14;9.05;;;8.65;;
5752;SDS011;2901;42.140;24.760;2023-07-31T10:24:40;10.52;;;9.77;;
5752;SDS011;2901;42.140;24.760;2023-07-31T10:27:07;9.25;;;8.85;;
5752;SDS011;2901;42.140;24.760;2023-07-31T10:29:34;9.13;;;8.70;;
5752;SDS011;2901;42.140;24.760;2023-07-31T10:32:02;9.23;;;8.68;;
5752;SDS011;2901;42.140;24.760;2023-07-31T10:34:31;9.10;;;8.70;;
5752;SDS011;2901;42.140;24.760;2023-07-31T10:42:44;8.23;;;7.50;;
5752;SDS011;2901;42.140;24.760;2023-07-31T10:45:14;8.43;;;8.00;;
5752;SDS011;2901;42.140;24.760;2023-07-31T10:48:02;9.07;;;8.68;;
5752;SDS011;2901;42.140;24.760;2023-07-31T10:50:32;8.75;;;8.25;;
5752;SDS011;2901;42.140;24.760;2023-07-31T10:53:01;8.07;;;7.78;;
5752;SDS011;2901;42.140;24.760;2023-07-31T10:57:57;7.50;;;7.18;;
5752;SDS011;2901;42.140;24.760;2023-07-31T11:00:31;7.95;;;7.55;;
5752;SDS011;2901;42.140;24.760;2023-07-31T11:02:57;6.78;;;6.38;;
5752;SDS011;2901;42.140;24.760;2023-07-31T11:05:43;7.25;;;6.93;;
5752;SDS011;2901;42.140;24.760;2023-07-31T11:10:48;7.18;;;6.70;;
5752;SDS011;2901;42.140;24.760;2023-07-31T11:13:14;7.35;;;6.95;;
5752;SDS011;2901;42.140;24.760;2023-07-31T11:15:40;9.05;;;8.60;;
5752;SDS011;2901;42.140;24.760;2023-07-31T11:18:05;9.20;;;8.80;;
5752;SDS011;2901;42.140;24.760;2023-07-31T11:20:33;8.25;;;7.55;;
5752;SDS011;2901;42.140;24.760;2023-07-31T11:23:03;6.30;;;5.78;;
5752;SDS011;2901;42.140;24.760;2023-07-31T11:25:32;6.90;;;6.40;;
5752;SDS011;2901;42.140;24.760;2023-07-31T11:28:01;7.13;;;6.75;;
5752;SDS011;2901;42.140;24.760;2023-07-31T11:30:31;7.20;;;6.53;;
5752;SDS011;2901;42.140;24.760;2023-07-31T11:32:57;7.80;;;7.13;;
5752;SDS011;2901;42.140;24.760;2023-07-31T11:35:22;6.70;;;6.25;;
5752;SDS011;2901;42.140;24.760;2023-07-31T11:37:48;6.60;;;6.00;;
5752;SDS011;2901;42.140;24.760;2023-07-31T11:40:14;6.20;;;5.90;;
5752;SDS011;2901;42.140;24.760;2023-07-31T11:42:39;6.40;;;6.05;;
5752;SDS011;2901;42.140;24.760;2023-07-31T11:45:06;6.15;;;5.75;;
5752;SDS011;2901;42.140;24.760;2023-07-31T11:47:33;7.15;;;6.75;;
5752;SDS011;2901;42.140;24.760;2023-07-31T11:50:02;6.50;;;6.20;;
5752;SDS011;2901;42.140;24.760;2023-07-31T11:52:38;5.65;;;5.43;;
5752;SDS011;2901;42.140;24.760;2023-07-31T11:55:07;6.40;;;5.95;;
5752;SDS011;2901;42.140;24.760;2023-07-31T11:57:34;6.03;;;5.53;;
5752;SDS011;2901;42.140;24.760;2023-07-31T12:00:01;6.10;;;5.80;;
5752;SDS011;2901;42.140;24.760;2023-07-31T12:02:28;6.68;;;6.28;;
5752;SDS011;2901;42.140;24.760;2023-07-31T12:04:53;7.43;;;6.88;;
5752;SDS011;2901;42.140;24.760;2023-07-31T12:07:19;7.43;;;7.13;;
5752;SDS011;2901;42.140;24.760;2023-07-31T12:09:54;7.47;;;7.15;;
5752;SDS011;2901;42.140;24.760;2023-07-31T12:12:20;7.35;;;7.03;;
5752;SDS011;2901;42.140;24.760;2023-07-31T12:14:47;7.65;;;6.88;;
5752;SDS011;2901;42.140;24.760;2023-07-31T12:17:12;7.35;;;6.85;;
5752;SDS011;2901;42.140;24.760;2023-07-31T12:19:39;7.03;;;6.72;;
5752;SDS011;2901;42.140;24.760;2023-07-31T12:22:12;7.30;;;7.00;;
5752;SDS011;2901;42.140;24.760;2023-07-31T12:24:39;8.25;;;7.72;;
5752;SDS011;2901;42.140;24.760;2023-07-31T12:27:11;7.10;;;6.80;;
5752;SDS011;2901;42.140;24.760;2023-07-31T12:29:38;7.10;;;6.80;;
5752;SDS011;2901;42.140;24.760;2023-07-31T12:32:04;7.53;;;7.03;;
5752;SDS011;2901;42.140;24.760;2023-07-31T12:34:44;7.15;;;6.65;;
5752;SDS011;2901;42.140;24.760;2023-07-31T12:37:09;7.60;;;6.97;;
5752;SDS011;2901;42.140;24.760;2023-07-31T12:39:34;6.38;;;6.07;;
5752;SDS011;2901;42.140;24.760;2023-07-31T12:42:00;6.10;;;5.90;;
5752;SDS011;2901;42.140;24.760;2023-07-31T12:44:25;5.75;;;5.55;;
5752;SDS011;2901;42.140;24.760;2023-07-31T12:46:51;5.55;;;5.35;;
5752;SDS011;2901;42.140;24.760;2023-07-31T12:49:16;5.30;;;4.85;;
5752;SDS011;2901;42.140;24.760;2023-07-31T12:51:41;6.85;;;5.75;;
5752;SDS011;2901;42.140;24.760;2023-07-31T12:54:07;5.80;;;5.50;;
5752;SDS011;2901;42.140;24.760;2023-07-31T12:56:32;6.03;;;5.63;;
5752;SDS011;2901;42.140;24.760;2023-07-31T12:58:57;5.32;;;5.13;;
5752;SDS011;2901;42.140;24.760;2023-07-31T13:01:23;6.00;;;5.72;;
5752;SDS011;2901;42.140;24.760;2023-07-31T13:03:48;5.00;;;4.80;;
5752;SDS011;2901;42.140;24.760;2023-07-31T13:06:13;5.32;;;5.13;;
5752;SDS011;2901;42.140;24.760;2023-07-31T13:08:39;6.15;;;5.75;;
5752;SDS011;2901;42.140;24.760;2023-07-31T13:11:04;6.75;;;6.35;;
5752;SDS011;2901;42.140;24.760;2023-07-31T13:13:30;6.30;;;6.05;;
5752;SDS011;2901;42.140;24.760;2023-07-31T13:15:56;6.63;;;6.22;;
5752;SDS011;2901;42.140;24.760;2023-07-31T13:18:21;6.70;;;6.22;;
5752;SDS011;2901;42.140;24.760;2023-07-31T13:20:47;6.07;;;5.70;;
5752;SDS011;2901;42.140;24.760;2023-07-31T13:23:12;6.75;;;6.25;;
5752;SDS011;2901;42.140;24.760;2023-07-31T13:25:37;7.05;;;6.75;;
5752;SDS011;2901;42.140;24.760;2023-07-31T13:28:03;7.07;;;6.68;;
5752;SDS011;2901;42.140;24.760;2023-07-31T13:30:28;9.45;;;6.85;;
5752;SDS011;2901;42.140;24.760;2023-07-31T13:32:54;5.90;;;5.60;;
5752;SDS011;2901;42.140;24.760;2023-07-31T13:35:19;6.30;;;6.00;;
5752;SDS011;2901;42.140;24.760;2023-07-31T13:37:44;6.45;;;6.05;;
5752;SDS011;2901;42.140;24.760;2023-07-31T13:40:10;8.38;;;6.72;;
5752;SDS011;2901;42.140;24.760;2023-07-31T13:42:36;6.38;;;5.78;;
5752;SDS011;2901;42.140;24.760;2023-07-31T13:45:01;5.30;;;5.05;;
5752;SDS011;2901;42.140;24.760;2023-07-31T13:47:26;6.35;;;6.03;;
5752;SDS011;2901;42.140;24.760;2023-07-31T13:49:52;5.80;;;5.60;;
5752;SDS011;2901;42.140;24.760;2023-07-31T13:52:17;6.30;;;6.00;;
5752;SDS011;2901;42.140;24.760;2023-07-31T13:54:42;5.22;;;5.03;;
5752;SDS011;2901;42.140;24.760;2023-07-31T13:57:08;6.15;;;5.82;;
5752;SDS011;2901;42.140;24.760;2023-07-31T13:59:33;5.97;;;5.57;;
5752;SDS011;2901;42.140;24.760;2023-07-31T14:01:59;6.20;;;5.82;;
5752;SDS011;2901;42.140;24.760;2023-07-31T14:04:24;6.47;;;6.18;;
5752;SDS011;2901;42.140;24.760;2023-07-31T14:06:49;6.05;;;5.75;;
5752;SDS011;2901;42.140;24.760;2023-07-31T14:09:15;6.05;;;5.85;;
5752;SDS011;2901;42.140;24.760;2023-07-31T14:11:42;5.55;;;5.20;;
5752;SDS011;2901;42.140;24.760;2023-07-31T14:14:08;6.90;;;6.47;;
5752;SDS011;2901;42.140;24.760;2023-07-31T14:16:35;6.32;;;6.03;;
5752;SDS011;2901;42.140;24.760;2023-07-31T14:19:00;5.55;;;5.35;;
5752;SDS011;2901;42.140;24.760;2023-07-31T14:21:25;6.07;;;5.70;;
5752;SDS011;2901;42.140;24.760;2023-07-31T14:23:51;6.05;;;5.72;;
5752;SDS011;2901;42.140;24.760;2023-07-31T14:26:16;6.30;;;5.82;;
5752;SDS011;2901;42.140;24.760;2023-07-31T14:28:42;6.60;;;5.95;;
5752;SDS011;2901;42.140;24.760;2023-07-31T14:31:07;6.93;;;6.28;;
5752;SDS011;2901;42.140;24.760;2023-07-31T14:33:33;6.00;;;5.70;;
5752;SDS011;2901;42.140;24.760;2023-07-31T14:35:58;5.75;;;5.55;;
5752;SDS011;2901;42.140;24.760;2023-07-31T14:38:24;5.13;;;4.72;;
5752;SDS011;2901;42.140;24.760;2023-07-31T14:40:49;6.13;;;5.82;;
5752;SDS011;2901;42.140;24.760;2023-07-31T14:43:15;6.07;;;5.78;;
5752;SDS011;2901;42.140;24.760;2023-07-31T14:45:40;6.72;;;6.43;;
5752;SDS011;2901;42.140;24.760;2023-07-31T14:48:06;5.60;;;5.30;;
5752;SDS011;2901;42.140;24.760;2023-07-31T14:50:31;5.53;;;5.22;;
5752;SDS011;2901;42.140;24.760;2023-07-31T14:52:57;6.40;;;6.00;;
5752;SDS011;2901;42.140;24.760;2023-07-31T14:55:22;5.65;;;5.35;;
5752;SDS011;2901;42.140;24.760;2023-07-31T14:57:47;6.50;;;6.25;;
5752;SDS011;2901;42.140;24.760;2023-07-31T15:00:13;6.10;;;5.57;;
5752;SDS011;2901;42.140;24.760;2023-07-31T15:02:39;5.88;;;5.43;;
5752;SDS011;2901;42.140;24.760;2023-07-31T15:05:05;6.47;;;6.20;;